sensor_id;sensor_type;location;lat;lon;timestamp;P1;durP1;ratioP1;P2;durP2;ratioP2
22064;SDS011;11197;53.110;8.468;2023-04-03T00:02:00;4.93;;;1.40;;
22064;SDS011;11197;53.110;8.468;2023-04-03T00:04:25;4.88;;;1.33;;
22064;SDS011;11197;53.110;8.468;2023-04-03T00:06:51;4.30;;;1.58;;
22064;SDS011;11197;53.110;8.468;2023-04-03T00:09:17;7.03;;;1.50;;
22064;SDS011;11197;53.110;8.468;2023-04-03T00:11:43;4.18;;;1.40;;
22064;SDS011;11197;53.110;8.468;2023-04-03T00:14:08;3.40;;;1.23;;
22064;SDS011;11197;53.110;8.468;2023-04-03T00:16:34;9.50;;;1.63;;
22064;SDS011;11197;53.110;8.468;2023-04-03T00:19:00;4.97;;;1.63;;
22064;SDS011;11197;53.110;8.468;2023-04-03T00:21:26;4.32;;;1.50;;
22064;SDS011;11197;53.110;8.468;2023-04-03T00:23:52;5.20;;;1.70;;
22064;SDS011;11197;53.110;8.468;2023-04-03T00:26:18;4.50;;;1.48;;
22064;SDS011;11197;53.110;8.468;2023-04-03T00:28:44;4.97;;;1.73;;
22064;SDS011;11197;53.110;8.468;2023-04-03T00:31:10;7.38;;;1.55;;
22064;SDS011;11197;53.110;8.468;2023-04-03T00:33:36;5.63;;;1.70;;
22064;SDS011;11197;53.110;8.468;2023-04-03T00:36:06;5.60;;;1.70;;
22064;SDS011;11197;53.110;8.468;2023-04-03T00:38:35;6.38;;;1.92;;
22064;SDS011;11197;53.110;8.468;2023-04-03T00:41:01;9.30;;;1.88;;
22064;SDS011;11197;53.110;8.468;2023-04-03T00:43:27;6.70;;;2.13;;
22064;SDS011;11197;53.110;8.468;2023-04-03T00:45:55;5.45;;;1.80;;
22064;SDS011;11197;53.110;8.468;2023-04-03T00:50:54;7.22;;;2.28;;
22064;SDS011;11197;53.110;8.468;2023-04-03T00:53:25;5.57;;;2.15;;
22064;SDS011;11197;53.110;8.468;2023-04-03T00:56:05;9.90;;;2.20;;
22064;SDS011;11197;53.110;8.468;2023-04-03T00:58:37;4.82;;;1.98;;
22064;SDS011;11197;53.110;8.468;2023-04-03T01:01:08;6.68;;;1.90;;
22064;SDS011;11197;53.110;8.468;2023-04-03T01:03:38;6.90;;;1.90;;
22064;SDS011;11197;53.110;8.468;2023-04-03T01:06:04;8.05;;;2.88;;
22064;SDS011;11197;53.110;8.468;2023-04-03T01:08:31;5.47;;;1.85;;
22064;SDS011;11197;53.110;8.468;2023-04-03T01:10:57;7.82;;;2.00;;
22064;SDS011;11197;53.110;8.468;2023-04-03T01:15:52;4.88;;;2.10;;
22064;SDS011;11197;53.110;8.468;2023-04-03T01:18:18;6.80;;;2.08;;
22064;SDS011;11197;53.110;8.468;2023-04-03T01:23:36;5.28;;;2.13;;
22064;SDS011;11197;53.110;8.468;2023-04-03T01:26:31;5.75;;;1.90;;
22064;SDS011;11197;53.110;8.468;2023-04-03T01:28:59;6.47;;;1.90;;
22064;SDS011;11197;53.110;8.468;2023-04-03T01:34:01;6.07;;;2.00;;
22064;SDS011;11197;53.110;8.468;2023-04-03T01:36:30;5.10;;;1.80;;
22064;SDS011;11197;53.110;8.468;2023-04-03T01:38:57;5.15;;;1.70;;
22064;SDS011;11197;53.110;8.468;2023-04-03T01:41:25;6.13;;;1.70;;
22064;SDS011;11197;53.110;8.468;2023-04-03T01:43:59;4.43;;;1.70;;
22064;SDS011;11197;53.110;8.468;2023-04-03T01:46:25;7.90;;;1.70;;
22064;SDS011;11197;53.110;8.468;2023-04-03T01:48:51;4.78;;;1.60;;
22064;SDS011;11197;53.110;8.468;2023-04-03T01:51:17;5.63;;;1.90;;
22064;SDS011;11197;53.110;8.468;2023-04-03T01:53:43;5.40;;;1.83;;
22064;SDS011;11197;53.110;8.468;2023-04-03T01:56:09;7.55;;;2.00;;
22064;SDS011;11197;53.110;8.468;2023-04-03T01:58:35;5.95;;;1.70;;
22064;SDS011;11197;53.110;8.468;2023-04-03T02:01:01;6.85;;;1.80;;
22064;SDS011;11197;53.110;8.468;2023-04-03T02:03:28;5.35;;;1.70;;
22064;SDS011;11197;53.110;8.468;2023-04-03T02:05:54;4.45;;;1.35;;
22064;SDS011;11197;53.110;8.468;2023-04-03T02:08:20;5.15;;;1.88;;
22064;SDS011;11197;53.110;8.468;2023-04-03T02:10:46;5.75;;;1.90;;
22064;SDS011;11197;53.110;8.468;2023-04-03T02:13:14;5.95;;;1.90;;
22064;SDS011;11197;53.110;8.468;2023-04-03T02:15:40;3.15;;;1.40;;
22064;SDS011;11197;53.110;8.468;2023-04-03T02:18:06;8.75;;;1.80;;
22064;SDS011;11197;53.110;8.468;2023-04-03T02:20:32;7.00;;;1.60;;
22064;SDS011;11197;53.110;8.468;2023-04-03T02:22:59;6.82;;;1.88;;
22064;SDS011;11197;53.110;8.468;2023-04-03T02:25:24;4.32;;;1.67;;
22064;SDS011;11197;53.110;8.468;2023-04-03T02:27:51;6.78;;;1.88;;
22064;SDS011;11197;53.110;8.468;2023-04-03T02:30:17;5.30;;;1.70;;
22064;SDS011;11197;53.110;8.468;2023-04-03T02:32:43;5.20;;;1.80;;
22064;SDS011;11197;53.110;8.468;2023-04-03T02:35:09;5.30;;;1.90;;
22064;SDS011;11197;53.110;8.468;2023-04-03T02:37:37;5.05;;;1.88;;
22064;SDS011;11197;53.110;8.468;2023-04-03T02:40:04;5.45;;;1.80;;
22064;SDS011;11197;53.110;8.468;2023-04-03T02:42:31;5.65;;;1.83;;
22064;SDS011;11197;53.110;8.468;2023-04-03T02:45:00;6.82;;;1.95;;
22064;SDS011;11197;53.110;8.468;2023-04-03T02:47:26;6.65;;;1.80;;
22064;SDS011;11197;53.110;8.468;2023-04-03T02:49:53;5.25;;;1.70;;
22064;SDS011;11197;53.110;8.468;2023-04-03T02:52:19;7.30;;;1.92;;
22064;SDS011;11197;53.110;8.468;2023-04-03T02:54:46;5.65;;;1.60;;
22064;SDS011;11197;53.110;8.468;2023-04-03T02:57:12;5.72;;;1.73;;
22064;SDS011;11197;53.110;8.468;2023-04-03T02:59:38;5.35;;;1.92;;
22064;SDS011;11197;53.110;8.468;2023-04-03T03:02:09;6.47;;;1.85;;
22064;SDS011;11197;53.110;8.468;2023-04-03T03:04:35;4.40;;;1.88;;
22064;SDS011;11197;53.110;8.468;2023-04-03T03:07:02;7.10;;;2.10;;
22064;SDS011;11197;53.110;8.468;2023-04-03T03:09:28;6.40;;;1.98;;
22064;SDS011;11197;53.110;8.468;2023-04-03T03:11:55;4.93;;;1.98;;
22064;SDS011;11197;53.110;8.468;2023-04-03T03:14:21;6.55;;;2.00;;
22064;SDS011;11197;53.110;8.468;2023-04-03T03:16:48;6.60;;;2.40;;
22064;SDS011;11197;53.110;8.468;2023-04-03T03:19:14;6.20;;;1.80;;
22064;SDS011;11197;53.110;8.468;2023-04-03T03:21:40;7.75;;;2.20;;
22064;SDS011;11197;53.110;8.468;2023-04-03T03:24:06;5.72;;;2.10;;
22064;SDS011;11197;53.110;8.468;2023-04-03T03:26:32;8.63;;;2.20;;
22064;SDS011;11197;53.110;8.468;2023-04-03T03:28:58;6.95;;;2.30;;
22064;SDS011;11197;53.110;8.468;2023-04-03T03:31:25;3.83;;;1.73;;
22064;SDS011;11197;53.110;8.468;2023-04-03T03:33:51;4.80;;;1.83;;
22064;SDS011;11197;53.110;8.468;2023-04-03T03:36:17;6.53;;;2.05;;
22064;SDS011;11197;53.110;8.468;2023-04-03T03:38:43;5.32;;;1.65;;
22064;SDS011;11197;53.110;8.468;2023-04-03T03:41:10;6.32;;;2.30;;
22064;SDS011;11197;53.110;8.468;2023-04-03T03:43:36;6.15;;;2.00;;
22064;SDS011;11197;53.110;8.468;2023-04-03T03:46:04;6.65;;;2.28;;
22064;SDS011;11197;53.110;8.468;2023-04-03T03:48:30;7.50;;;2.30;;
22064;SDS011;11197;53.110;8.468;2023-04-03T03:50:56;5.53;;;2.22;;
22064;SDS011;11197;53.110;8.468;2023-04-03T03:53:26;6.43;;;2.08;;
22064;SDS011;11197;53.110;8.468;2023-04-03T03:55:56;7.15;;;2.30;;
22064;SDS011;11197;53.110;8.468;2023-04-03T03:58:24;5.90;;;2.00;;
22064;SDS011;11197;53.110;8.468;2023-04-03T04:00:51;5.55;;;2.08;;
22064;SDS011;11197;53.110;8.468;2023-04-03T04:03:17;5.82;;;2.33;;
22064;SDS011;11197;53.110;8.468;2023-04-03T04:05:46;6.88;;;2.30;;
22064;SDS011;11197;53.110;8.468;2023-04-03T04:08:12;9.95;;;2.50;;
22064;SDS011;11197;53.110;8.468;2023-04-03T04:10:38;3.80;;;2.08;;
22064;SDS011;11197;53.110;8.468;2023-04-03T04:13:05;5.28;;;2.50;;
22064;SDS011;11197;53.110;8.468;2023-04-03T04:15:31;5.28;;;2.35;;
22064;SDS011;11197;53.110;8.468;2023-04-03T04:17:57;6.90;;;2.50;;
22064;SDS011;11197;53.110;8.468;2023-04-03T04:20:23;7.45;;;2.60;;
22064;SDS011;11197;53.110;8.468;2023-04-03T04:22:49;5.15;;;2.17;;
22064;SDS011;11197;53.110;8.468;2023-04-03T04:25:17;7.22;;;2.60;;
22064;SDS011;11197;53.110;8.468;2023-04-03T04:27:43;5.72;;;2.35;;
22064;SDS011;11197;53.110;8.468;2023-04-03T04:30:12;7.15;;;2.63;;
22064;SDS011;11197;53.110;8.468;2023-04-03T04:32:39;9.27;;;2.70;;
22064;SDS011;11197;53.110;8.468;2023-04-03T04:35:08;7.30;;;3.08;;
22064;SDS011;11197;53.110;8.468;2023-04-03T04:37:39;6.22;;;2.88;;
22064;SDS011;11197;53.110;8.468;2023-04-03T04:40:05;7.63;;;2.88;;
22064;SDS011;11197;53.110;8.468;2023-04-03T04:42:31;6.32;;;3.17;;
22064;SDS011;11197;53.110;8.468;2023-04-03T04:44:57;7.28;;;3.55;;
22064;SDS011;11197;53.110;8.468;2023-04-03T04:47:23;9.15;;;4.05;;
22064;SDS011;11197;53.110;8.468;2023-04-03T04:49:50;10.63;;;4.32;;
22064;SDS011;11197;53.110;8.468;2023-04-03T04:52:16;7.45;;;3.67;;
22064;SDS011;11197;53.110;8.468;2023-04-03T04:54:42;9.70;;;3.15;;
22064;SDS011;11197;53.110;8.468;2023-04-03T04:57:09;7.10;;;3.15;;
22064;SDS011;11197;53.110;8.468;2023-04-03T04:59:36;8.50;;;3.30;;
22064;SDS011;11197;53.110;8.468;2023-04-03T05:02:04;7.30;;;3.17;;
22064;SDS011;11197;53.110;8.468;2023-04-03T05:04:30;8.80;;;3.20;;
22064;SDS011;11197;53.110;8.468;2023-04-03T05:07:03;6.65;;;3.00;;
22064;SDS011;11197;53.110;8.468;2023-04-03T05:09:32;7.55;;;3.25;;
22064;SDS011;11197;53.110;8.468;2023-04-03T05:11:58;7.35;;;3.03;;
22064;SDS011;11197;53.110;8.468;2023-04-03T05:14:28;9.90;;;3.33;;
22064;SDS011;11197;53.110;8.468;2023-04-03T05:16:59;6.07;;;3.00;;
22064;SDS011;11197;53.110;8.468;2023-04-03T05:19:28;7.43;;;3.20;;
22064;SDS011;11197;53.110;8.468;2023-04-03T05:21:55;5.53;;;2.97;;
22064;SDS011;11197;53.110;8.468;2023-04-03T05:24:21;8.25;;;2.92;;
22064;SDS011;11197;53.110;8.468;2023-04-03T05:26:47;7.25;;;3.30;;
22064;SDS011;11197;53.110;8.468;2023-04-03T05:29:14;8.38;;;3.47;;
22064;SDS011;11197;53.110;8.468;2023-04-03T05:31:40;5.43;;;2.70;;
22064;SDS011;11197;53.110;8.468;2023-04-03T05:34:09;9.80;;;3.35;;
22064;SDS011;11197;53.110;8.468;2023-04-03T05:36:37;9.85;;;3.40;;
22064;SDS011;11197;53.110;8.468;2023-04-03T05:39:06;6.53;;;2.95;;
22064;SDS011;11197;53.110;8.468;2023-04-03T05:41:35;8.88;;;3.10;;
22064;SDS011;11197;53.110;8.468;2023-04-03T05:44:01;8.70;;;3.05;;
22064;SDS011;11197;53.110;8.468;2023-04-03T05:46:27;9.07;;;3.45;;
22064;SDS011;11197;53.110;8.468;2023-04-03T05:48:55;7.68;;;3.40;;
22064;SDS011;11197;53.110;8.468;2023-04-03T05:51:25;10.60;;;3.28;;
22064;SDS011;11197;53.110;8.468;2023-04-03T05:54:02;8.60;;;3.40;;
22064;SDS011;11197;53.110;8.468;2023-04-03T05:56:37;9.70;;;3.67;;
22064;SDS011;11197;53.110;8.468;2023-04-03T05:59:04;9.75;;;3.80;;
22064;SDS011;11197;53.110;8.468;2023-04-03T06:01:30;10.60;;;3.65;;
22064;SDS011;11197;53.110;8.468;2023-04-03T06:03:56;8.75;;;4.15;;
22064;SDS011;11197;53.110;8.468;2023-04-03T06:06:23;11.45;;;3.83;;
22064;SDS011;11197;53.110;8.468;2023-04-03T06:08:49;10.07;;;4.40;;
22064;SDS011;11197;53.110;8.468;2023-04-03T06:11:16;7.70;;;4.00;;
22064;SDS011;11197;53.110;8.468;2023-04-03T06:13:42;7.45;;;3.72;;
22064;SDS011;11197;53.110;8.468;2023-04-03T06:16:09;9.18;;;3.75;;
22064;SDS011;11197;53.110;8.468;2023-04-03T06:18:40;11.52;;;3.80;;
22064;SDS011;11197;53.110;8.468;2023-04-03T06:21:06;8.35;;;3.58;;
22064;SDS011;11197;53.110;8.468;2023-04-03T06:23:33;8.55;;;3.70;;
22064;SDS011;11197;53.110;8.468;2023-04-03T06:25:59;11.68;;;4.00;;
22064;SDS011;11197;53.110;8.468;2023-04-03T06:28:25;9.68;;;4.00;;
22064;SDS011;11197;53.110;8.468;2023-04-03T06:30:51;9.15;;;3.75;;
22064;SDS011;11197;53.110;8.468;2023-04-03T06:33:17;11.00;;;3.95;;
22064;SDS011;11197;53.110;8.468;2023-04-03T06:35:44;8.93;;;4.20;;
22064;SDS011;11197;53.110;8.468;2023-04-03T06:38:11;12.40;;;4.13;;
22064;SDS011;11197;53.110;8.468;2023-04-03T06:40:37;11.20;;;4.63;;
22064;SDS011;11197;53.110;8.468;2023-04-03T06:43:03;10.65;;;4.68;;
22064;SDS011;11197;53.110;8.468;2023-04-03T06:45:30;13.48;;;5.70;;
22064;SDS011;11197;53.110;8.468;2023-04-03T06:47:56;12.68;;;5.63;;
22064;SDS011;11197;53.110;8.468;2023-04-03T06:50:22;12.93;;;5.30;;
22064;SDS011;11197;53.110;8.468;2023-04-03T06:52:49;13.98;;;6.03;;
22064;SDS011;11197;53.110;8.468;2023-04-03T06:55:15;11.05;;;5.38;;
22064;SDS011;11197;53.110;8.468;2023-04-03T06:57:41;9.55;;;4.20;;
22064;SDS011;11197;53.110;8.468;2023-04-03T07:00:07;10.55;;;4.28;;
22064;SDS011;11197;53.110;8.468;2023-04-03T07:02:34;13.60;;;4.30;;
22064;SDS011;11197;53.110;8.468;2023-04-03T07:05:00;8.63;;;4.10;;
22064;SDS011;11197;53.110;8.468;2023-04-03T07:07:26;10.05;;;4.15;;
22064;SDS011;11197;53.110;8.468;2023-04-03T07:09:51;10.10;;;4.35;;
22064;SDS011;11197;53.110;8.468;2023-04-03T07:12:17;9.77;;;4.15;;
22064;SDS011;11197;53.110;8.468;2023-04-03T07:14:43;10.63;;;4.47;;
22064;SDS011;11197;53.110;8.468;2023-04-03T07:17:09;10.70;;;4.65;;
22064;SDS011;11197;53.110;8.468;2023-04-03T07:19:35;11.45;;;5.05;;
22064;SDS011;11197;53.110;8.468;2023-04-03T07:22:01;11.65;;;5.10;;
22064;SDS011;11197;53.110;8.468;2023-04-03T07:24:27;12.18;;;4.75;;
22064;SDS011;11197;53.110;8.468;2023-04-03T07:26:53;10.52;;;4.47;;
22064;SDS011;11197;53.110;8.468;2023-04-03T07:29:19;10.25;;;4.60;;
22064;SDS011;11197;53.110;8.468;2023-04-03T07:31:46;11.20;;;4.85;;
22064;SDS011;11197;53.110;8.468;2023-04-03T07:34:12;10.50;;;4.80;;
22064;SDS011;11197;53.110;8.468;2023-04-03T07:36:38;12.63;;;4.43;;
22064;SDS011;11197;53.110;8.468;2023-04-03T07:39:04;10.20;;;4.72;;
22064;SDS011;11197;53.110;8.468;2023-04-03T07:41:31;11.93;;;4.22;;
22064;SDS011;11197;53.110;8.468;2023-04-03T07:43:57;10.73;;;3.53;;
22064;SDS011;11197;53.110;8.468;2023-04-03T07:46:23;10.40;;;3.72;;
22064;SDS011;11197;53.110;8.468;2023-04-03T07:48:49;10.38;;;4.00;;
22064;SDS011;11197;53.110;8.468;2023-04-03T07:51:15;13.35;;;3.78;;
22064;SDS011;11197;53.110;8.468;2023-04-03T07:53:41;10.45;;;3.30;;
22064;SDS011;11197;53.110;8.468;2023-04-03T07:56:07;13.02;;;3.20;;
22064;SDS011;11197;53.110;8.468;2023-04-03T07:58:34;8.63;;;3.00;;
22064;SDS011;11197;53.110;8.468;2023-04-03T08:01:00;13.13;;;2.65;;
22064;SDS011;11197;53.110;8.468;2023-04-03T08:03:25;8.43;;;2.97;;
22064;SDS011;11197;53.110;8.468;2023-04-03T08:05:51;9.20;;;2.55;;
22064;SDS011;11197;53.110;8.468;2023-04-03T08:08:20;10.30;;;2.17;;
22064;SDS011;11197;53.110;8.468;2023-04-03T08:10:51;9.25;;;2.70;;
22064;SDS011;11197;53.110;8.468;2023-04-03T08:13:18;8.00;;;2.40;;
22064;SDS011;11197;53.110;8.468;2023-04-03T08:15:45;4.70;;;2.22;;
22064;SDS011;11197;53.110;8.468;2023-04-03T08:18:11;8.20;;;2.22;;
22064;SDS011;11197;53.110;8.468;2023-04-03T08:20:38;9.38;;;2.40;;
22064;SDS011;11197;53.110;8.468;2023-04-03T08:23:07;8.57;;;2.35;;
22064;SDS011;11197;53.110;8.468;2023-04-03T08:25:34;11.93;;;2.65;;
22064;SDS011;11197;53.110;8.468;2023-04-03T08:28:03;9.23;;;2.92;;
22064;SDS011;11197;53.110;8.468;2023-04-03T08:30:29;6.63;;;2.50;;
22064;SDS011;11197;53.110;8.468;2023-04-03T08:32:55;6.30;;;2.30;;
22064;SDS011;11197;53.110;8.468;2023-04-03T08:35:21;7.80;;;3.08;;
22064;SDS011;11197;53.110;8.468;2023-04-03T08:37:47;7.18;;;2.30;;
22064;SDS011;11197;53.110;8.468;2023-04-03T08:40:14;5.82;;;2.58;;
22064;SDS011;11197;53.110;8.468;2023-04-03T08:45:57;7.25;;;1.90;;
22064;SDS011;11197;53.110;8.468;2023-04-03T08:48:14;5.65;;;1.85;;
22064;SDS011;11197;53.110;8.468;2023-04-03T08:50:49;6.28;;;1.80;;
22064;SDS011;11197;53.110;8.468;2023-04-03T08:53:19;7.00;;;1.70;;
22064;SDS011;11197;53.110;8.468;2023-04-03T08:55:49;5.88;;;1.75;;
22064;SDS011;11197;53.110;8.468;2023-04-03T08:58:23;6.55;;;1.77;;
22064;SDS011;11197;53.110;8.468;2023-04-03T09:00:57;4.53;;;1.80;;
22064;SDS011;11197;53.110;8.468;2023-04-03T09:03:28;4.63;;;1.63;;
22064;SDS011;11197;53.110;8.468;2023-04-03T09:08:49;3.97;;;1.40;;
22064;SDS011;11197;53.110;8.468;2023-04-03T09:16:59;4.88;;;1.55;;
22064;SDS011;11197;53.110;8.468;2023-04-03T09:19:41;9.05;;;1.17;;
22064;SDS011;11197;53.110;8.468;2023-04-03T09:22:36;3.90;;;0.90;;
22064;SDS011;11197;53.110;8.468;2023-04-03T09:25:13;3.28;;;0.90;;
22064;SDS011;11197;53.110;8.468;2023-04-03T09:28:00;6.43;;;1.20;;
22064;SDS011;11197;53.110;8.468;2023-04-03T09:30:27;3.72;;;1.10;;
22064;SDS011;11197;53.110;8.468;2023-04-03T09:32:55;3.63;;;0.90;;
22064;SDS011;11197;53.110;8.468;2023-04-03T09:35:29;1.88;;;0.68;;
22064;SDS011;11197;53.110;8.468;2023-04-03T09:40:36;4.10;;;0.93;;
22064;SDS011;11197;53.110;8.468;2023-04-03T09:45:47;2.30;;;0.77;;
22064;SDS011;11197;53.110;8.468;2023-04-03T09:48:23;3.45;;;0.90;;
22064;SDS011;11197;53.110;8.468;2023-04-03T09:58:44;3.25;;;0.80;;
22064;SDS011;11197;53.110;8.468;2023-04-03T10:01:56;3.40;;;0.97;;
22064;SDS011;11197;53.110;8.468;2023-04-03T10:04:08;3.45;;;1.00;;
22064;SDS011;11197;53.110;8.468;2023-04-03T10:06:41;3.50;;;0.95;;
22064;SDS011;11197;53.110;8.468;2023-04-03T10:09:29;5.28;;;1.40;;
22064;SDS011;11197;53.110;8.468;2023-04-03T10:14:26;7.20;;;1.40;;
22064;SDS011;11197;53.110;8.468;2023-04-03T10:21:55;4.47;;;1.55;;
22064;SDS011;11197;53.110;8.468;2023-04-03T10:27:18;4.47;;;1.70;;
22064;SDS011;11197;53.110;8.468;2023-04-03T10:35:11;4.88;;;1.50;;
22064;SDS011;11197;53.110;8.468;2023-04-03T10:37:55;3.88;;;1.20;;
22064;SDS011;11197;53.110;8.468;2023-04-03T11:01:39;2.72;;;0.80;;
22064;SDS011;11197;53.110;8.468;2023-04-03T11:04:09;2.53;;;0.88;;
22064;SDS011;11197;53.110;8.468;2023-04-03T11:09:55;3.10;;;0.90;;
22064;SDS011;11197;53.110;8.468;2023-04-03T11:12:28;3.65;;;1.00;;
22064;SDS011;11197;53.110;8.468;2023-04-03T11:15:21;3.75;;;1.15;;
22064;SDS011;11197;53.110;8.468;2023-04-03T11:20:59;4.68;;;0.98;;
22064;SDS011;11197;53.110;8.468;2023-04-03T11:23:31;2.33;;;0.77;;
22064;SDS011;11197;53.110;8.468;2023-04-03T11:26:35;2.63;;;0.77;;
22064;SDS011;11197;53.110;8.468;2023-04-03T11:29:01;3.42;;;0.90;;
22064;SDS011;11197;53.110;8.468;2023-04-03T11:36:59;2.13;;;0.82;;
22064;SDS011;11197;53.110;8.468;2023-04-03T11:39:28;3.20;;;0.98;;
22064;SDS011;11197;53.110;8.468;2023-04-03T11:44:40;2.03;;;0.90;;
22064;SDS011;11197;53.110;8.468;2023-04-03T11:47:07;2.17;;;0.93;;
22064;SDS011;11197;53.110;8.468;2023-04-03T12:13:37;2.60;;;0.82;;
22064;SDS011;11197;53.110;8.468;2023-04-03T12:19:04;3.28;;;1.08;;
22064;SDS011;11197;53.110;8.468;2023-04-03T12:35:04;2.08;;;0.80;;
22064;SDS011;11197;53.110;8.468;2023-04-03T12:51:40;3.00;;;0.90;;
22064;SDS011;11197;53.110;8.468;2023-04-03T12:57:08;3.25;;;1.25;;
22064;SDS011;11197;53.110;8.468;2023-04-03T12:59:53;3.85;;;1.20;;
22064;SDS011;11197;53.110;8.468;2023-04-03T13:04:46;1.52;;;0.90;;
22064;SDS011;11197;53.110;8.468;2023-04-03T13:07:20;2.67;;;1.00;;
22064;SDS011;11197;53.110;8.468;2023-04-03T13:09:59;4.00;;;0.90;;
22064;SDS011;11197;53.110;8.468;2023-04-03T13:12:25;2.38;;;0.80;;
22064;SDS011;11197;53.110;8.468;2023-04-03T13:14:53;2.38;;;0.77;;
22064;SDS011;11197;53.110;8.468;2023-04-03T13:17:21;3.40;;;0.93;;
22064;SDS011;11197;53.110;8.468;2023-04-03T13:19:48;3.10;;;0.95;;
22064;SDS011;11197;53.110;8.468;2023-04-03T13:24:54;4.60;;;1.17;;
22064;SDS011;11197;53.110;8.468;2023-04-03T13:27:21;2.95;;;1.00;;
22064;SDS011;11197;53.110;8.468;2023-04-03T13:29:52;2.88;;;0.90;;
22064;SDS011;11197;53.110;8.468;2023-04-03T13:32:20;2.42;;;1.10;;
22064;SDS011;11197;53.110;8.468;2023-04-03T13:34:48;4.25;;;1.17;;
22064;SDS011;11197;53.110;8.468;2023-04-03T13:42:35;4.25;;;1.10;;
22064;SDS011;11197;53.110;8.468;2023-04-03T13:45:21;4.63;;;0.95;;
22064;SDS011;11197;53.110;8.468;2023-04-03T13:47:52;3.88;;;0.90;;
22064;SDS011;11197;53.110;8.468;2023-04-03T13:50:24;2.75;;;0.90;;
22064;SDS011;11197;53.110;8.468;2023-04-03T13:55:27;3.63;;;1.10;;
22064;SDS011;11197;53.110;8.468;2023-04-03T14:00:49;2.70;;;0.90;;
22064;SDS011;11197;53.110;8.468;2023-04-03T14:05:51;2.35;;;1.05;;
22064;SDS011;11197;53.110;8.468;2023-04-03T14:08:18;3.63;;;1.15;;
22064;SDS011;11197;53.110;8.468;2023-04-03T14:10:44;2.80;;;1.15;;
22064;SDS011;11197;53.110;8.468;2023-04-03T14:13:16;4.05;;;1.00;;
22064;SDS011;11197;53.110;8.468;2023-04-03T14:15:45;3.33;;;1.10;;
22064;SDS011;11197;53.110;8.468;2023-04-03T14:18:14;2.95;;;1.10;;
22064;SDS011;11197;53.110;8.468;2023-04-03T14:20:42;3.50;;;1.15;;
22064;SDS011;11197;53.110;8.468;2023-04-03T14:23:09;3.38;;;1.15;;
22064;SDS011;11197;53.110;8.468;2023-04-03T14:25:38;3.55;;;1.10;;
22064;SDS011;11197;53.110;8.468;2023-04-03T14:28:18;4.57;;;1.10;;
22064;SDS011;11197;53.110;8.468;2023-04-03T14:30:46;3.70;;;1.05;;
22064;SDS011;11197;53.110;8.468;2023-04-03T14:33:15;2.88;;;1.13;;
22064;SDS011;11197;53.110;8.468;2023-04-03T14:35:43;3.65;;;1.20;;
22064;SDS011;11197;53.110;8.468;2023-04-03T14:38:29;3.63;;;1.33;;
22064;SDS011;11197;53.110;8.468;2023-04-03T14:40:56;2.75;;;1.02;;
22064;SDS011;11197;53.110;8.468;2023-04-03T14:43:23;2.20;;;1.08;;
22064;SDS011;11197;53.110;8.468;2023-04-03T14:45:49;3.20;;;1.30;;
22064;SDS011;11197;53.110;8.468;2023-04-03T14:48:25;4.72;;;1.20;;
22064;SDS011;11197;53.110;8.468;2023-04-03T14:50:52;3.38;;;1.10;;
22064;SDS011;11197;53.110;8.468;2023-04-03T14:53:19;3.35;;;1.30;;
22064;SDS011;11197;53.110;8.468;2023-04-03T14:55:51;3.95;;;1.70;;
22064;SDS011;11197;53.110;8.468;2023-04-03T14:58:18;3.63;;;1.58;;
22064;SDS011;11197;53.110;8.468;2023-04-03T15:00:46;2.63;;;1.17;;
22064;SDS011;11197;53.110;8.468;2023-04-03T15:03:16;4.72;;;1.50;;
22064;SDS011;11197;53.110;8.468;2023-04-03T15:05:45;4.55;;;1.30;;
22064;SDS011;11197;53.110;8.468;2023-04-03T15:08:16;2.65;;;1.00;;
22064;SDS011;11197;53.110;8.468;2023-04-03T15:10:47;3.40;;;1.17;;
22064;SDS011;11197;53.110;8.468;2023-04-03T15:13:14;4.53;;;1.25;;
22064;SDS011;11197;53.110;8.468;2023-04-03T15:15:40;3.10;;;1.15;;
22064;SDS011;11197;53.110;8.468;2023-04-03T15:18:09;3.78;;;1.55;;
22064;SDS011;11197;53.110;8.468;2023-04-03T15:20:40;4.55;;;1.17;;
22064;SDS011;11197;53.110;8.468;2023-04-03T15:23:06;2.28;;;0.90;;
22064;SDS011;11197;53.110;8.468;2023-04-03T15:25:32;3.53;;;1.15;;
22064;SDS011;11197;53.110;8.468;2023-04-03T15:27:58;3.10;;;1.00;;
22064;SDS011;11197;53.110;8.468;2023-04-03T15:30:25;3.63;;;1.08;;
22064;SDS011;11197;53.110;8.468;2023-04-03T15:32:50;2.20;;;0.90;;
22064;SDS011;11197;53.110;8.468;2023-04-03T15:35:18;2.65;;;1.08;;
22064;SDS011;11197;53.110;8.468;2023-04-03T15:37:44;6.15;;;1.35;;
22064;SDS011;11197;53.110;8.468;2023-04-03T15:40:09;5.10;;;1.20;;
22064;SDS011;11197;53.110;8.468;2023-04-03T15:42:36;3.60;;;1.52;;
22064;SDS011;11197;53.110;8.468;2023-04-03T15:45:02;2.63;;;1.23;;
22064;SDS011;11197;53.110;8.468;2023-04-03T15:47:28;3.25;;;1.30;;
22064;SDS011;11197;53.110;8.468;2023-04-03T15:49:54;4.28;;;1.27;;
22064;SDS011;11197;53.110;8.468;2023-04-03T15:52:21;4.65;;;1.20;;
22064;SDS011;11197;53.110;8.468;2023-04-03T15:54:47;4.72;;;1.33;;
22064;SDS011;11197;53.110;8.468;2023-04-03T15:57:13;4.63;;;1.27;;
22064;SDS011;11197;53.110;8.468;2023-04-03T15:59:39;4.13;;;1.38;;
22064;SDS011;11197;53.110;8.468;2023-04-03T16:02:05;5.13;;;1.40;;
22064;SDS011;11197;53.110;8.468;2023-04-03T16:04:34;3.38;;;1.08;;
22064;SDS011;11197;53.110;8.468;2023-04-03T16:07:04;3.67;;;1.40;;
22064;SDS011;11197;53.110;8.468;2023-04-03T16:09:30;3.58;;;1.20;;
22064;SDS011;11197;53.110;8.468;2023-04-03T16:11:57;2.58;;;1.17;;
22064;SDS011;11197;53.110;8.468;2023-04-03T16:14:23;3.05;;;1.10;;
22064;SDS011;11197;53.110;8.468;2023-04-03T16:16:49;3.65;;;1.48;;
22064;SDS011;11197;53.110;8.468;2023-04-03T16:19:15;4.78;;;1.40;;
22064;SDS011;11197;53.110;8.468;2023-04-03T16:21:41;3.22;;;1.50;;
22064;SDS011;11197;53.110;8.468;2023-04-03T16:24:07;4.07;;;1.40;;
22064;SDS011;11197;53.110;8.468;2023-04-03T16:26:33;4.03;;;1.30;;
22064;SDS011;11197;53.110;8.468;2023-04-03T16:29:00;4.25;;;1.30;;
22064;SDS011;11197;53.110;8.468;2023-04-03T16:31:26;3.75;;;1.30;;
22064;SDS011;11197;53.110;8.468;2023-04-03T16:33:52;3.75;;;1.45;;
22064;SDS011;11197;53.110;8.468;2023-04-03T16:36:18;4.80;;;2.00;;
22064;SDS011;11197;53.110;8.468;2023-04-03T16:38:46;3.83;;;1.67;;
22064;SDS011;11197;53.110;8.468;2023-04-03T16:41:12;3.95;;;1.30;;
22064;SDS011;11197;53.110;8.468;2023-04-03T16:43:38;4.15;;;1.35;;
22064;SDS011;11197;53.110;8.468;2023-04-03T16:46:04;2.45;;;1.20;;
22064;SDS011;11197;53.110;8.468;2023-04-03T16:48:30;3.65;;;1.38;;
22064;SDS011;11197;53.110;8.468;2023-04-03T16:50:56;3.97;;;1.50;;
22064;SDS011;11197;53.110;8.468;2023-04-03T16:53:23;3.15;;;1.35;;
22064;SDS011;11197;53.110;8.468;2023-04-03T16:55:49;3.83;;;1.40;;
22064;SDS011;11197;53.110;8.468;2023-04-03T16:58:16;3.70;;;1.65;;
22064;SDS011;11197;53.110;8.468;2023-04-03T17:00:42;3.10;;;1.25;;
22064;SDS011;11197;53.110;8.468;2023-04-03T17:03:08;4.97;;;1.30;;
22064;SDS011;11197;53.110;8.468;2023-04-03T17:05:34;5.10;;;1.30;;
22064;SDS011;11197;53.110;8.468;2023-04-03T17:08:00;2.88;;;1.30;;
22064;SDS011;11197;53.110;8.468;2023-04-03T17:10:27;6.32;;;1.50;;
22064;SDS011;11197;53.110;8.468;2023-04-03T17:12:53;3.15;;;1.00;;
22064;SDS011;11197;53.110;8.468;2023-04-03T17:15:19;3.28;;;1.10;;
22064;SDS011;11197;53.110;8.468;2023-04-03T17:17:46;5.18;;;1.30;;
22064;SDS011;11197;53.110;8.468;2023-04-03T17:20:13;3.33;;;1.25;;
22064;SDS011;11197;53.110;8.468;2023-04-03T17:22:39;5.32;;;1.58;;
22064;SDS011;11197;53.110;8.468;2023-04-03T17:25:05;3.53;;;1.25;;
22064;SDS011;11197;53.110;8.468;2023-04-03T17:27:32;5.05;;;1.38;;
22064;SDS011;11197;53.110;8.468;2023-04-03T17:29:58;4.43;;;1.30;;
22064;SDS011;11197;53.110;8.468;2023-04-03T17:32:24;2.88;;;1.30;;
22064;SDS011;11197;53.110;8.468;2023-04-03T17:34:50;4.03;;;1.27;;